sensor_id;sensor_type;location;lat;lon;timestamp;pressure;altitude;pressure_sealevel;temperature;humidity
50310;BME280;36207;51.850;21.698;2024-01-30T00:01:23;101755.66;;;0.54;83.08
50310;BME280;36207;51.850;21.698;2024-01-30T00:03:49;101753.38;;;0.54;83.01
50310;BME280;36207;51.850;21.698;2024-01-30T00:06:19;101746.11;;;0.56;82.92
50310;BME280;36207;51.850;21.698;2024-01-30T00:08:49;101749.19;;;0.61;82.64
50310;BME280;36207;51.850;21.698;2024-01-30T00:11:16;101747.77;;;0.65;82.60
50310;BME280;36207;51.850;21.698;2024-01-30T00:13:42;101747.68;;;0.67;83.10
50310;BME280;36207;51.850;21.698;2024-01-30T00:16:08;101749.52;;;0.69;82.79
50310;BME280;36207;51.850;21.698;2024-01-30T00:18:35;101751.55;;;0.71;82.77
50310;BME280;36207;51.850;21.698;2024-01-30T00:21:01;101748.29;;;0.73;82.55
50310;BME280;36207;51.850;21.698;2024-01-30T00:23:27;101749.09;;;0.74;82.60
50310;BME280;36207;51.850;21.698;2024-01-30T00:25:53;101744.35;;;0.74;82.66
50310;BME280;36207;51.850;21.698;2024-01-30T00:28:19;101742.95;;;0.74;82.61
50310;BME280;36207;51.850;21.698;2024-01-30T00:30:45;101740.54;;;0.73;82.35
50310;BME280;36207;51.850;21.698;2024-01-30T00:33:11;101733.38;;;0.73;82.29
50310;BME280;36207;51.850;21.698;2024-01-30T00:35:37;101731.52;;;0.75;82.18
50310;BME280;36207;51.850;21.698;2024-01-30T00:38:03;101729.25;;;0.78;82.16
50310;BME280;36207;51.850;21.698;2024-01-30T00:40:29;101732.38;;;0.79;82.07
50310;BME280;36207;51.850;21.698;2024-01-30T00:42:55;101735.64;;;0.77;82.23
50310;BME280;36207;51.850;21.698;2024-01-30T00:45:21;101734.15;;;0.75;82.17
50310;BME280;36207;51.850;21.698;2024-01-30T00:47:47;101727.67;;;0.75;82.06
50310;BME280;36207;51.850;21.698;2024-01-30T00:50:13;101720.41;;;0.73;81.98
50310;BME280;36207;51.850;21.698;2024-01-30T00:52:40;101721.11;;;0.73;81.99
50310;BME280;36207;51.850;21.698;2024-01-30T00:55:07;101716.23;;;0.72;82.06
50310;BME280;36207;51.850;21.698;2024-01-30T00:57:33;101712.78;;;0.71;82.03
50310;BME280;36207;51.850;21.698;2024-01-30T00:59:59;101713.51;;;0.71;81.98
50310;BME280;36207;51.850;21.698;2024-01-30T01:02:25;101713.72;;;0.70;82.04
50310;BME280;36207;51.850;21.698;2024-01-30T01:04:51;101714.45;;;0.69;82.14
50310;BME280;36207;51.850;21.698;2024-01-30T01:07:17;101713.55;;;0.70;82.08
50310;BME280;36207;51.850;21.698;2024-01-30T01:09:43;101712.69;;;0.69;82.12
50310;BME280;36207;51.850;21.698;2024-01-30T01:12:09;101711.02;;;0.67;81.69
50310;BME280;36207;51.850;21.698;2024-01-30T01:14:35;101710.46;;;0.68;81.93
50310;BME280;36207;51.850;21.698;2024-01-30T01:17:02;101706.33;;;0.67;81.84
50310;BME280;36207;51.850;21.698;2024-01-30T01:19:28;101701.72;;;0.64;82.29
50310;BME280;36207;51.850;21.698;2024-01-30T01:21:54;101694.20;;;0.60;82.25
50310;BME280;36207;51.850;21.698;2024-01-30T01:24:19;101690.24;;;0.55;82.14
50310;BME280;36207;51.850;21.698;2024-01-30T01:26:45;101689.61;;;0.54;81.90
50310;BME280;36207;51.850;21.698;2024-01-30T01:29:11;101688.07;;;0.57;81.84
50310;BME280;36207;51.850;21.698;2024-01-30T01:31:38;101691.33;;;0.58;81.84
50310;BME280;36207;51.850;21.698;2024-01-30T01:34:12;101693.98;;;0.57;81.93
50310;BME280;36207;51.850;21.698;2024-01-30T01:36:39;101694.54;;;0.57;81.88
50310;BME280;36207;51.850;21.698;2024-01-30T01:39:05;101688.12;;;0.59;81.70
50310;BME280;36207;51.850;21.698;2024-01-30T01:41:32;101687.39;;;0.60;81.85
50310;BME280;36207;51.850;21.698;2024-01-30T01:43:59;101683.58;;;0.59;81.68
50310;BME280;36207;51.850;21.698;2024-01-30T01:46:30;101684.35;;;0.61;81.72
50310;BME280;36207;51.850;21.698;2024-01-30T01:48:56;101682.84;;;0.63;81.56
50310;BME280;36207;51.850;21.698;2024-01-30T01:51:24;101679.70;;;0.63;81.65
50310;BME280;36207;51.850;21.698;2024-01-30T01:53:53;101677.16;;;0.64;81.57
50310;BME280;36207;51.850;21.698;2024-01-30T01:56:20;101673.21;;;0.66;81.74
50310;BME280;36207;51.850;21.698;2024-01-30T01:58:47;101673.05;;;0.66;81.67
50310;BME280;36207;51.850;21.698;2024-01-30T02:01:18;101673.92;;;0.66;81.43
50310;BME280;36207;51.850;21.698;2024-01-30T02:03:46;101675.86;;;0.66;81.37
50310;BME280;36207;51.850;21.698;2024-01-30T02:06:15;101676.45;;;0.65;81.44
50310;BME280;36207;51.850;21.698;2024-01-30T02:08:42;101679.36;;;0.62;81.46
50310;BME280;36207;51.850;21.698;2024-01-30T02:11:08;101679.49;;;0.63;81.40
50310;BME280;36207;51.850;21.698;2024-01-30T02:13:36;101677.33;;;0.65;81.48
50310;BME280;36207;51.850;21.698;2024-01-30T02:16:02;101676.92;;;0.66;81.31
50310;BME280;36207;51.850;21.698;2024-01-30T02:18:28;101677.83;;;0.62;81.27
50310;BME280;36207;51.850;21.698;2024-01-30T02:20:56;101673.75;;;0.63;81.35
50310;BME280;36207;51.850;21.698;2024-01-30T02:23:24;101676.94;;;0.62;81.11
50310;BME280;36207;51.850;21.698;2024-01-30T02:25:53;101674.47;;;0.59;81.06
50310;BME280;36207;51.850;21.698;2024-01-30T02:28:19;101670.13;;;0.54;81.11
50310;BME280;36207;51.850;21.698;2024-01-30T02:30:46;101669.74;;;0.51;81.22
50310;BME280;36207;51.850;21.698;2024-01-30T02:33:13;101666.88;;;0.49;81.41
50310;BME280;36207;51.850;21.698;2024-01-30T02:35:39;101663.67;;;0.47;81.44
50310;BME280;36207;51.850;21.698;2024-01-30T02:38:05;101664.45;;;0.44;81.50
50310;BME280;36207;51.850;21.698;2024-01-30T02:40:31;101666.11;;;0.43;81.54
50310;BME280;36207;51.850;21.698;2024-01-30T02:42:59;101664.17;;;0.39;81.71
50310;BME280;36207;51.850;21.698;2024-01-30T02:45:25;101662.25;;;0.36;81.65
50310;BME280;36207;51.850;21.698;2024-01-30T02:47:52;101655.76;;;0.32;81.75
50310;BME280;36207;51.850;21.698;2024-01-30T02:50:18;101654.89;;;0.29;81.78
50310;BME280;36207;51.850;21.698;2024-01-30T02:52:44;101652.33;;;0.27;81.88
50310;BME280;36207;51.850;21.698;2024-01-30T02:55:11;101645.90;;;0.22;82.36
50310;BME280;36207;51.850;21.698;2024-01-30T02:57:38;101641.91;;;0.17;82.31
50310;BME280;36207;51.850;21.698;2024-01-30T03:00:05;101643.73;;;0.16;82.08
50310;BME280;36207;51.850;21.698;2024-01-30T03:02:32;101643.26;;;0.15;82.41
50310;BME280;36207;51.850;21.698;2024-01-30T03:04:59;101648.57;;;0.14;82.63
50310;BME280;36207;51.850;21.698;2024-01-30T03:07:26;101654.39;;;0.13;82.42
50310;BME280;36207;51.850;21.698;2024-01-30T03:09:52;101657.45;;;0.11;82.71
50310;BME280;36207;51.850;21.698;2024-01-30T03:12:18;101659.20;;;0.08;82.82
50310;BME280;36207;51.850;21.698;2024-01-30T03:14:44;101659.80;;;0.06;82.44
50310;BME280;36207;51.850;21.698;2024-01-30T03:17:10;101656.92;;;0.04;82.55
50310;BME280;36207;51.850;21.698;2024-01-30T03:19:35;101656.19;;;0.01;82.67
50310;BME280;36207;51.850;21.698;2024-01-30T03:22:01;101650.70;;;-0.02;82.96
50310;BME280;36207;51.850;21.698;2024-01-30T03:24:27;101647.45;;;-0.04;82.57
50310;BME280;36207;51.850;21.698;2024-01-30T03:26:53;101648.33;;;-0.03;82.52
50310;BME280;36207;51.850;21.698;2024-01-30T03:29:19;101647.77;;;-0.03;82.43
50310;BME280;36207;51.850;21.698;2024-01-30T03:31:45;101645.15;;;-0.03;82.36
50310;BME280;36207;51.850;21.698;2024-01-30T03:34:11;101645.20;;;-0.04;82.51
50310;BME280;36207;51.850;21.698;2024-01-30T03:36:37;101650.27;;;-0.04;82.34
50310;BME280;36207;51.850;21.698;2024-01-30T03:39:03;101646.61;;;-0.04;82.44
50310;BME280;36207;51.850;21.698;2024-01-30T03:41:29;101646.37;;;-0.03;82.39
50310;BME280;36207;51.850;21.698;2024-01-30T03:43:55;101648.05;;;-0.02;82.15
50310;BME280;36207;51.850;21.698;2024-01-30T03:46:21;101647.71;;;-0.02;82.46
50310;BME280;36207;51.850;21.698;2024-01-30T03:48:47;101641.65;;;-0.03;82.32
50310;BME280;36207;51.850;21.698;2024-01-30T03:51:13;101640.25;;;-0.03;82.22
50310;BME280;36207;51.850;21.698;2024-01-30T03:53:41;101640.51;;;-0.05;82.39
50310;BME280;36207;51.850;21.698;2024-01-30T03:56:08;101641.08;;;-0.06;82.55
50310;BME280;36207;51.850;21.698;2024-01-30T03:58:34;101637.78;;;-0.07;82.42
50310;BME280;36207;51.850;21.698;2024-01-30T04:01:00;101634.89;;;-0.08;82.38
50310;BME280;36207;51.850;21.698;2024-01-30T04:03:26;101637.59;;;-0.10;82.51
50310;BME280;36207;51.850;21.698;2024-01-30T04:05:52;101637.44;;;-0.10;82.59
50310;BME280;36207;51.850;21.698;2024-01-30T04:08:19;101633.79;;;-0.11;82.41
50310;BME280;36207;51.850;21.698;2024-01-30T04:10:46;101637.63;;;-0.11;82.40
50310;BME280;36207;51.850;21.698;2024-01-30T04:13:13;101636.98;;;-0.11;82.41
50310;BME280;36207;51.850;21.698;2024-01-30T04:15:39;101639.79;;;-0.12;82.49
50310;BME280;36207;51.850;21.698;2024-01-30T04:18:05;101639.20;;;-0.11;82.53
50310;BME280;36207;51.850;21.698;2024-01-30T04:20:32;101631.52;;;-0.11;82.56
50310;BME280;36207;51.850;21.698;2024-01-30T04:22:58;101632.06;;;-0.12;82.30
50310;BME280;36207;51.850;21.698;2024-01-30T04:25:24;101630.63;;;-0.11;82.63
50310;BME280;36207;51.850;21.698;2024-01-30T04:27:50;101633.42;;;-0.10;82.51
50310;BME280;36207;51.850;21.698;2024-01-30T04:30:15;101637.39;;;-0.09;82.51
50310;BME280;36207;51.850;21.698;2024-01-30T04:32:42;101636.84;;;-0.09;82.64
50310;BME280;36207;51.850;21.698;2024-01-30T04:35:08;101636.55;;;-0.10;82.77
50310;BME280;36207;51.850;21.698;2024-01-30T04:37:35;101639.55;;;-0.10;82.77
50310;BME280;36207;51.850;21.698;2024-01-30T04:40:00;101638.42;;;-0.09;82.91
50310;BME280;36207;51.850;21.698;2024-01-30T04:42:27;101635.27;;;-0.09;82.92
50310;BME280;36207;51.850;21.698;2024-01-30T04:44:53;101630.54;;;-0.09;82.69
50310;BME280;36207;51.850;21.698;2024-01-30T04:47:18;101628.29;;;-0.09;82.80
50310;BME280;36207;51.850;21.698;2024-01-30T04:49:44;101627.38;;;-0.08;82.80
50310;BME280;36207;51.850;21.698;2024-01-30T04:52:10;101627.33;;;-0.07;82.85
50310;BME280;36207;51.850;21.698;2024-01-30T04:54:36;101628.33;;;-0.07;82.71
50310;BME280;36207;51.850;21.698;2024-01-30T04:57:02;101625.65;;;-0.05;82.81
50310;BME280;36207;51.850;21.698;2024-01-30T04:59:28;101627.14;;;-0.04;82.81
50310;BME280;36207;51.850;21.698;2024-01-30T05:01:54;101633.02;;;-0.02;82.88
50310;BME280;36207;51.850;21.698;2024-01-30T05:04:20;101637.71;;;-0.01;82.80
50310;BME280;36207;51.850;21.698;2024-01-30T05:06:47;101634.87;;;0.00;82.74
50310;BME280;36207;51.850;21.698;2024-01-30T05:09:13;101639.35;;;0.02;82.61
50310;BME280;36207;51.850;21.698;2024-01-30T05:11:40;101640.98;;;0.04;82.60
50310;BME280;36207;51.850;21.698;2024-01-30T05:14:07;101643.08;;;0.04;82.51
50310;BME280;36207;51.850;21.698;2024-01-30T05:16:34;101643.54;;;0.06;82.63
50310;BME280;36207;51.850;21.698;2024-01-30T05:19:00;101647.31;;;0.07;82.48
50310;BME280;36207;51.850;21.698;2024-01-30T05:21:26;101644.70;;;0.11;82.48
50310;BME280;36207;51.850;21.698;2024-01-30T05:23:52;101645.67;;;0.12;82.57
50310;BME280;36207;51.850;21.698;2024-01-30T05:26:18;101643.98;;;0.11;82.33
50310;BME280;36207;51.850;21.698;2024-01-30T05:28:44;101645.14;;;0.09;82.40
50310;BME280;36207;51.850;21.698;2024-01-30T05:31:10;101644.71;;;0.10;82.46
50310;BME280;36207;51.850;21.698;2024-01-30T05:33:37;101639.23;;;0.08;82.32
50310;BME280;36207;51.850;21.698;2024-01-30T05:36:03;101640.83;;;0.04;82.29
50310;BME280;36207;51.850;21.698;2024-01-30T05:38:29;101641.20;;;-0.01;82.35
50310;BME280;36207;51.850;21.698;2024-01-30T05:40:56;101640.34;;;-0.05;82.38
50310;BME280;36207;51.850;21.698;2024-01-30T05:43:24;101637.46;;;-0.07;82.58
50310;BME280;36207;51.850;21.698;2024-01-30T05:45:50;101641.67;;;-0.08;82.48
50310;BME280;36207;51.850;21.698;2024-01-30T05:48:17;101637.58;;;-0.10;82.28
50310;BME280;36207;51.850;21.698;2024-01-30T05:50:43;101639.56;;;-0.11;82.55
50310;BME280;36207;51.850;21.698;2024-01-30T05:53:09;101638.34;;;-0.11;82.57
50310;BME280;36207;51.850;21.698;2024-01-30T05:55:35;101635.45;;;-0.13;82.61
50310;BME280;36207;51.850;21.698;2024-01-30T05:58:01;101638.05;;;-0.16;82.69
50310;BME280;36207;51.850;21.698;2024-01-30T06:00:27;101640.06;;;-0.18;82.75
50310;BME280;36207;51.850;21.698;2024-01-30T06:02:53;101644.66;;;-0.19;82.75
50310;BME280;36207;51.850;21.698;2024-01-30T06:05:19;101649.12;;;-0.20;82.58
50310;BME280;36207;51.850;21.698;2024-01-30T06:07:45;101647.92;;;-0.21;82.49
50310;BME280;36207;51.850;21.698;2024-01-30T06:10:11;101644.78;;;-0.21;82.43
50310;BME280;36207;51.850;21.698;2024-01-30T06:12:37;101643.31;;;-0.20;82.71
50310;BME280;36207;51.850;21.698;2024-01-30T06:15:04;101639.55;;;-0.18;82.74
50310;BME280;36207;51.850;21.698;2024-01-30T06:17:30;101644.83;;;-0.15;82.69
50310;BME280;36207;51.850;21.698;2024-01-30T06:19:56;101642.65;;;-0.13;82.57
50310;BME280;36207;51.850;21.698;2024-01-30T06:22:22;101646.27;;;-0.12;82.62
50310;BME280;36207;51.850;21.698;2024-01-30T06:24:48;101647.07;;;-0.14;82.71
50310;BME280;36207;51.850;21.698;2024-01-30T06:27:14;101647.46;;;-0.15;82.80
50310;BME280;36207;51.850;21.698;2024-01-30T06:29:43;101646.02;;;-0.14;82.72
50310;BME280;36207;51.850;21.698;2024-01-30T06:32:09;101646.98;;;-0.16;82.81
50310;BME280;36207;51.850;21.698;2024-01-30T06:34:34;101650.27;;;-0.19;83.17
50310;BME280;36207;51.850;21.698;2024-01-30T06:37:00;101647.25;;;-0.18;82.98
50310;BME280;36207;51.850;21.698;2024-01-30T06:39:27;101643.64;;;-0.16;82.94
50310;BME280;36207;51.850;21.698;2024-01-30T06:41:52;101649.85;;;-0.14;82.85
50310;BME280;36207;51.850;21.698;2024-01-30T06:44:18;101646.52;;;-0.10;82.88
50310;BME280;36207;51.850;21.698;2024-01-30T06:46:44;101647.75;;;-0.06;82.75
50310;BME280;36207;51.850;21.698;2024-01-30T06:49:10;101646.87;;;-0.02;82.81
50310;BME280;36207;51.850;21.698;2024-01-30T06:51:36;101646.55;;;0.01;82.68
50310;BME280;36207;51.850;21.698;2024-01-30T06:54:02;101652.27;;;0.06;82.57
50310;BME280;36207;51.850;21.698;2024-01-30T06:56:29;101648.93;;;0.10;82.57
50310;BME280;36207;51.850;21.698;2024-01-30T06:58:55;101645.34;;;0.19;82.62
50310;BME280;36207;51.850;21.698;2024-01-30T07:01:29;101646.43;;;0.33;82.24
50310;BME280;36207;51.850;21.698;2024-01-30T07:03:56;101643.12;;;0.54;82.58
50310;BME280;36207;51.850;21.698;2024-01-30T07:06:22;101645.88;;;0.84;82.28
50310;BME280;36207;51.850;21.698;2024-01-30T07:08:49;101647.16;;;0.93;81.57
50310;BME280;36207;51.850;21.698;2024-01-30T07:11:21;101647.58;;;1.20;82.13
50310;BME280;36207;51.850;21.698;2024-01-30T07:13:48;101645.63;;;1.70;81.63
50310;BME280;36207;51.850;21.698;2024-01-30T07:16:15;101646.41;;;2.17;80.43
50310;BME280;36207;51.850;21.698;2024-01-30T07:18:41;101643.27;;;2.60;80.44
50310;BME280;36207;51.850;21.698;2024-01-30T07:21:07;101639.59;;;3.14;81.80
50310;BME280;36207;51.850;21.698;2024-01-30T07:23:33;101646.92;;;3.62;77.55
50310;BME280;36207;51.850;21.698;2024-01-30T07:26:04;101645.33;;;3.85;76.56
50310;BME280;36207;51.850;21.698;2024-01-30T07:28:30;101644.70;;;4.03;76.76
50310;BME280;36207;51.850;21.698;2024-01-30T07:30:56;101642.06;;;4.36;78.25
50310;BME280;36207;51.850;21.698;2024-01-30T07:33:22;101649.17;;;4.70;77.27
50310;BME280;36207;51.850;21.698;2024-01-30T07:35:48;101647.39;;;5.00;74.96
50310;BME280;36207;51.850;21.698;2024-01-30T07:38:13;101649.55;;;5.30;77.18
50310;BME280;36207;51.850;21.698;2024-01-30T07:40:39;101644.55;;;5.74;75.40
50310;BME280;36207;51.850;21.698;2024-01-30T07:43:06;101647.33;;;5.98;73.68
50310;BME280;36207;51.850;21.698;2024-01-30T07:45:32;101647.02;;;6.15;73.33
50310;BME280;36207;51.850;21.698;2024-01-30T07:47:59;101644.44;;;6.43;74.23
50310;BME280;36207;51.850;21.698;2024-01-30T07:50:27;101643.87;;;6.72;70.89
50310;BME280;36207;51.850;21.698;2024-01-30T07:52:56;101642.41;;;6.80;68.52
50310;BME280;36207;51.850;21.698;2024-01-30T07:55:22;101640.39;;;6.93;69.60
50310;BME280;36207;51.850;21.698;2024-01-30T07:57:52;101638.85;;;7.08;70.32
50310;BME280;36207;51.850;21.698;2024-01-30T08:00:19;101635.60;;;7.30;71.84
50310;BME280;36207;51.850;21.698;2024-01-30T08:02:45;101635.47;;;7.61;71.22
50310;BME280;36207;51.850;21.698;2024-01-30T08:05:12;101636.22;;;7.77;68.43
50310;BME280;36207;51.850;21.698;2024-01-30T08:07:41;101636.73;;;7.68;68.60
50310;BME280;36207;51.850;21.698;2024-01-30T08:10:11;101638.90;;;7.67;68.82
50310;BME280;36207;51.850;21.698;2024-01-30T08:12:37;101640.45;;;7.72;70.95
50310;BME280;36207;51.850;21.698;2024-01-30T08:15:04;101642.27;;;7.70;67.94
50310;BME280;36207;51.850;21.698;2024-01-30T08:17:30;101638.92;;;7.62;69.14
50310;BME280;36207;51.850;21.698;2024-01-30T08:19:56;101640.58;;;7.64;66.66
50310;BME280;36207;51.850;21.698;2024-01-30T08:22:22;101643.52;;;7.45;65.95
50310;BME280;36207;51.850;21.698;2024-01-30T08:24:48;101640.17;;;7.30;66.32
50310;BME280;36207;51.850;21.698;2024-01-30T08:27:14;101635.95;;;7.30;68.14
50310;BME280;36207;51.850;21.698;2024-01-30T08:29:40;101633.74;;;7.40;67.54
50310;BME280;36207;51.850;21.698;2024-01-30T08:32:06;101631.14;;;7.51;65.89
50310;BME280;36207;51.850;21.698;2024-01-30T08:34:33;101625.90;;;7.48;66.14
50310;BME280;36207;51.850;21.698;2024-01-30T08:36:59;101625.25;;;7.47;63.66
50310;BME280;36207;51.850;21.698;2024-01-30T08:39:25;101633.48;;;7.46;64.38
50310;BME280;36207;51.850;21.698;2024-01-30T08:41:51;101630.69;;;7.41;64.67
50310;BME280;36207;51.850;21.698;2024-01-30T08:44:17;101625.45;;;7.32;64.96
50310;BME280;36207;51.850;21.698;2024-01-30T08:46:46;101620.67;;;7.40;65.01
50310;BME280;36207;51.850;21.698;2024-01-30T08:49:13;101620.54;;;7.57;63.22
50310;BME280;36207;51.850;21.698;2024-01-30T08:51:39;101619.35;;;7.61;63.93
50310;BME280;36207;51.850;21.698;2024-01-30T08:54:05;101619.48;;;7.64;65.16
50310;BME280;36207;51.850;21.698;2024-01-30T08:56:31;101614.99;;;7.81;66.76
50310;BME280;36207;51.850;21.698;2024-01-30T08:58:57;101615.58;;;8.00;66.26
50310;BME280;36207;51.850;21.698;2024-01-30T09:01:23;101615.98;;;8.12;65.69
50310;BME280;36207;51.850;21.698;2024-01-30T09:03:49;101615.55;;;8.24;65.64
50310;BME280;36207;51.850;21.698;2024-01-30T09:06:15;101610.77;;;8.31;63.82
50310;BME280;36207;51.850;21.698;2024-01-30T09:08:40;101612.52;;;8.29;64.34
50310;BME280;36207;51.850;21.698;2024-01-30T09:11:14;101611.44;;;8.29;64.95
50310;BME280;36207;51.850;21.698;2024-01-30T09:13:41;101613.64;;;8.17;60.03
50310;BME280;36207;51.850;21.698;2024-01-30T09:16:07;101610.56;;;8.00;60.07
50310;BME280;36207;51.850;21.698;2024-01-30T09:18:33;101607.98;;;8.01;64.33
50310;BME280;36207;51.850;21.698;2024-01-30T09:20:59;101608.77;;;8.16;63.32
50310;BME280;36207;51.850;21.698;2024-01-30T09:23:27;101605.71;;;8.19;62.55
50310;BME280;36207;51.850;21.698;2024-01-30T09:25:53;101607.42;;;8.30;62.25
50310;BME280;36207;51.850;21.698;2024-01-30T09:28:19;101605.29;;;8.42;63.08
50310;BME280;36207;51.850;21.698;2024-01-30T09:30:45;101603.08;;;8.47;61.28
50310;BME280;36207;51.850;21.698;2024-01-30T09:33:11;101606.39;;;8.50;61.79
50310;BME280;36207;51.850;21.698;2024-01-30T09:35:37;101601.77;;;8.43;62.50
50310;BME280;36207;51.850;21.698;2024-01-30T09:38:03;101599.88;;;8.47;63.10
50310;BME280;36207;51.850;21.698;2024-01-30T09:40:29;101598.27;;;8.62;62.64
50310;BME280;36207;51.850;21.698;2024-01-30T09:42:56;101601.14;;;8.62;59.93
50310;BME280;36207;51.850;21.698;2024-01-30T09:45:25;101598.11;;;8.38;57.93
50310;BME280;36207;51.850;21.698;2024-01-30T09:47:52;101598.63;;;8.21;58.04
50310;BME280;36207;51.850;21.698;2024-01-30T09:50:19;101593.52;;;8.12;60.26
50310;BME280;36207;51.850;21.698;2024-01-30T09:52:47;101589.23;;;8.14;61.30
50310;BME280;36207;51.850;21.698;2024-01-30T09:55:13;101589.66;;;8.22;62.39
50310;BME280;36207;51.850;21.698;2024-01-30T09:57:41;101589.08;;;8.33;61.56
50310;BME280;36207;51.850;21.698;2024-01-30T10:00:08;101588.96;;;8.37;58.96
50310;BME280;36207;51.850;21.698;2024-01-30T10:02:35;101583.06;;;8.31;59.28
50310;BME280;36207;51.850;21.698;2024-01-30T10:05:02;101584.67;;;8.31;60.89
50310;BME280;36207;51.850;21.698;2024-01-30T10:07:28;101581.39;;;8.39;60.56
50310;BME280;36207;51.850;21.698;2024-01-30T10:09:54;101579.30;;;8.45;59.39
50310;BME280;36207;51.850;21.698;2024-01-30T10:12:22;101575.16;;;8.49;60.06
50310;BME280;36207;51.850;21.698;2024-01-30T10:14:48;101568.31;;;8.59;62.46
50310;BME280;36207;51.850;21.698;2024-01-30T10:17:14;101566.61;;;8.73;62.77
50310;BME280;36207;51.850;21.698;2024-01-30T10:19:41;101562.46;;;8.80;62.10
50310;BME280;36207;51.850;21.698;2024-01-30T10:22:07;101562.23;;;8.81;60.77
50310;BME280;36207;51.850;21.698;2024-01-30T10:24:36;101561.07;;;8.74;61.03
50310;BME280;36207;51.850;21.698;2024-01-30T10:27:02;101553.09;;;8.65;59.49
50310;BME280;36207;51.850;21.698;2024-01-30T10:29:29;101550.06;;;8.63;59.59
50310;BME280;36207;51.850;21.698;2024-01-30T10:32:02;101546.98;;;8.64;61.19
50310;BME280;36207;51.850;21.698;2024-01-30T10:34:28;101544.82;;;8.71;60.66
50310;BME280;36207;51.850;21.698;2024-01-30T10:37:15;101542.31;;;8.73;59.33
50310;BME280;36207;51.850;21.698;2024-01-30T10:39:44;101539.20;;;8.70;60.88
50310;BME280;36207;51.850;21.698;2024-01-30T10:42:15;101536.41;;;8.69;60.71
50310;BME280;36207;51.850;21.698;2024-01-30T10:45:14;101533.35;;;8.74;61.50
50310;BME280;36207;51.850;21.698;2024-01-30T10:47:55;101532.43;;;8.79;60.83
50310;BME280;36207;51.850;21.698;2024-01-30T10:50:25;101527.91;;;8.84;61.17
50310;BME280;36207;51.850;21.698;2024-01-30T10:52:52;101525.20;;;8.88;60.86
50310;BME280;36207;51.850;21.698;2024-01-30T10:55:18;101522.36;;;8.92;61.27
50310;BME280;36207;51.850;21.698;2024-01-30T10:57:44;101519.70;;;8.94;60.09
50310;BME280;36207;51.850;21.698;2024-01-30T11:00:14;101517.69;;;8.95;61.08
50310;BME280;36207;51.850;21.698;2024-01-30T11:02:43;101513.43;;;9.02;60.78
50310;BME280;36207;51.850;21.698;2024-01-30T11:05:10;101511.05;;;8.98;60.44
50310;BME280;36207;51.850;21.698;2024-01-30T11:07:39;101510.20;;;8.95;60.57
50310;BME280;36207;51.850;21.698;2024-01-30T11:10:07;101510.69;;;8.96;60.08
50310;BME280;36207;51.850;21.698;2024-01-30T11:12:41;101511.20;;;8.97;60.52
50310;BME280;36207;51.850;21.698;2024-01-30T11:15:11;101509.11;;;8.96;59.20
50310;BME280;36207;51.850;21.698;2024-01-30T11:17:44;101507.97;;;8.97;59.61
50310;BME280;36207;51.850;21.698;2024-01-30T11:20:16;101502.04;;;8.89;58.37
50310;BME280;36207;51.850;21.698;2024-01-30T11:22:44;101495.58;;;8.86;59.43
50310;BME280;36207;51.850;21.698;2024-01-30T11:25:14;101492.17;;;8.86;59.17
50310;BME280;36207;51.850;21.698;2024-01-30T11:27:42;101489.07;;;8.87;58.41
50310;BME280;36207;51.850;21.698;2024-01-30T11:30:08;101491.30;;;8.88;59.27
50310;BME280;36207;51.850;21.698;2024-01-30T11:32:35;101485.41;;;8.92;59.58
50310;BME280;36207;51.850;21.698;2024-01-30T11:35:05;101479.17;;;8.95;59.03
50310;BME280;36207;51.850;21.698;2024-01-30T11:37:36;101474.30;;;8.95;58.67
50310;BME280;36207;51.850;21.698;2024-01-30T11:40:04;101470.99;;;8.95;57.47
50310;BME280;36207;51.850;21.698;2024-01-30T11:42:30;101470.25;;;8.95;57.73
50310;BME280;36207;51.850;21.698;2024-01-30T11:44:56;101467.49;;;9.01;58.64
50310;BME280;36207;51.850;21.698;2024-01-30T11:47:22;101461.64;;;9.05;57.35
50310;BME280;36207;51.850;21.698;2024-01-30T11:49:48;101457.52;;;9.07;58.22
50310;BME280;36207;51.850;21.698;2024-01-30T11:52:14;101455.93;;;9.09;57.00
50310;BME280;36207;51.850;21.698;2024-01-30T11:54:40;101449.09;;;9.12;58.44
50310;BME280;36207;51.850;21.698;2024-01-30T11:57:06;101452.36;;;9.13;57.73
50310;BME280;36207;51.850;21.698;2024-01-30T11:59:32;101451.83;;;9.13;57.01
50310;BME280;36207;51.850;21.698;2024-01-30T12:01:58;101452.58;;;9.15;57.30
50310;BME280;36207;51.850;21.698;2024-01-30T12:04:28;101452.40;;;9.18;58.24
50310;BME280;36207;51.850;21.698;2024-01-30T12:06:55;101451.59;;;9.24;56.82
50310;BME280;36207;51.850;21.698;2024-01-30T12:09:21;101451.05;;;9.22;54.24
50310;BME280;36207;51.850;21.698;2024-01-30T12:11:48;101449.94;;;9.18;54.91
50310;BME280;36207;51.850;21.698;2024-01-30T12:14:16;101446.23;;;9.18;56.02
50310;BME280;36207;51.850;21.698;2024-01-30T12:16:42;101443.89;;;9.21;57.00
50310;BME280;36207;51.850;21.698;2024-01-30T12:19:08;101446.34;;;9.27;56.52
50310;BME280;36207;51.850;21.698;2024-01-30T12:21:35;101446.22;;;9.28;56.75
50310;BME280;36207;51.850;21.698;2024-01-30T12:24:01;101446.42;;;9.32;56.54
50310;BME280;36207;51.850;21.698;2024-01-30T12:26:28;101443.38;;;9.36;57.58
50310;BME280;36207;51.850;21.698;2024-01-30T12:28:54;101440.55;;;9.42;57.16
50310;BME280;36207;51.850;21.698;2024-01-30T12:31:28;101439.41;;;9.47;56.50
50310;BME280;36207;51.850;21.698;2024-01-30T12:33:54;101436.98;;;9.50;56.83
50310;BME280;36207;51.850;21.698;2024-01-30T12:36:21;101433.52;;;9.49;53.51
50310;BME280;36207;51.850;21.698;2024-01-30T12:38:48;101436.72;;;9.46;55.24
50310;BME280;36207;51.850;21.698;2024-01-30T12:41:14;101433.48;;;9.42;54.60
50310;BME280;36207;51.850;21.698;2024-01-30T12:43:40;101430.46;;;9.37;54.78
50310;BME280;36207;51.850;21.698;2024-01-30T12:46:06;101425.08;;;9.36;53.92